Time;durP1;ratioP1;P1;durP2;ratioP2;P2;SDS_P1;SDS_P2;PMS_P1;PMS_P2;Temp;Humidity;BMP_temperature;BMP_pressure;BME280_temperature;BME280_humidity;BME280_pressure;Samples;Min_cycle;Max_cycle;Signal;HPM_P1;HPM_P2
2022/03/27 00:00:18;;;;;;;10.43;6.38;;;;;;;8.43;95.46;103014.56;5231867;28;20075;-66
2022/03/27 00:02:49;;;;;;;11.93;6.38;;;;;;;8.48;95.38;103008.25;5233754;28;20028;-66
2022/03/27 00:05:21;;;;;;;10.05;6.60;;;;;;;8.40;96.04;103011.13;5243629;28;20108;-66
2022/03/27 00:07:52;;;;;;;8.38;5.82;;;;;;;8.36;96.44;103007.69;5241504;28;20040;-66
2022/03/27 00:10:23;;;;;;;9.93;6.22;;;;;;;8.30;96.73;103026.50;5242055;28;20641;-66
2022/03/27 00:12:55;;;;;;;10.07;6.15;;;;;;;8.33;96.46;103021.09;5237637;28;20029;-66
2022/03/27 00:15:26;;;;;;;10.07;6.35;;;;;;;8.29;97.43;103022.09;5242297;28;20053;-66
2022/03/27 00:17:57;;;;;;;10.15;6.55;;;;;;;8.26;97.25;103024.84;5242646;28;20025;-66
2022/03/27 00:20:29;;;;;;;10.52;6.75;;;;;;;8.21;97.98;103016.16;5229567;28;20482;-66
2022/03/27 00:23:00;;;;;;;10.27;5.97;;;;;;;8.16;98.11;103021.59;5233828;28;20033;-66
2022/03/27 00:25:31;;;;;;;10.73;6.45;;;;;;;8.17;98.36;103025.13;5239480;28;20284;-66
2022/03/27 00:28:03;;;;;;;9.05;5.80;;;;;;;8.20;98.19;103023.25;5231509;28;20029;-67
2022/03/27 00:30:34;;;;;;;10.32;6.35;;;;;;;8.16;98.65;103015.44;5229893;28;20106;-66
2022/03/27 00:33:05;;;;;;;10.35;6.40;;;;;;;8.09;99.78;103011.22;5240893;28;20116;-66
2022/03/27 00:35:37;;;;;;;9.57;6.25;;;;;;;8.02;100.00;103000.78;5230839;28;20030;-66
2022/03/27 00:38:08;;;;;;;11.18;6.70;;;;;;;8.02;100.00;103011.41;5231602;28;20044;-66
2022/03/27 00:40:39;;;;;;;10.50;6.60;;;;;;;7.99;100.00;103010.63;5233381;28;20090;-66
2022/03/27 00:43:11;;;;;;;10.80;6.30;;;;;;;7.95;100.00;103009.00;5231297;28;20028;-66
2022/03/27 00:45:43;;;;;;;10.60;6.82;;;;;;;7.96;100.00;103014.25;5230174;28;20029;-66
2022/03/27 00:48:20;;;;;;;11.70;6.65;;;;;;;7.93;100.00;103013.47;5235319;28;20033;-66
2022/03/27 00:50:53;;;;;;;10.68;6.60;;;;;;;7.87;100.00;103001.25;5236571;28;20033;-66
2022/03/27 00:53:24;;;;;;;10.52;6.25;;;;;;;7.83;100.00;103004.91;5230219;28;20061;-66
2022/03/27 00:55:55;;;;;;;11.25;6.78;;;;;;;7.82;100.00;103003.16;5229084;28;20900;-66
2022/03/27 00:58:27;;;;;;;11.23;7.13;;;;;;;7.83;100.00;103000.47;5231080;28;20128;-66
2022/03/27 01:01:01;;;;;;;10.70;6.10;;;;;;;7.81;100.00;103007.63;5234908;28;20033;-66
2022/03/27 01:03:32;;;;;;;8.70;6.15;;;;;;;7.79;100.00;103008.59;5235367;28;20029;-66
2022/03/27 01:06:16;;;;;;;13.05;7.20;;;;;;;7.70;100.00;103003.53;5238897;28;20435;-66
2022/03/27 01:11:37;;;;;;;12.25;7.20;;;;;;;7.70;100.00;102992.91;5232098;28;20499;-66
2022/03/27 01:14:09;;;;;;;12.00;6.97;;;;;;;7.67;100.00;102999.22;5235674;28;20028;-66
2022/03/27 01:16:47;;;;;;;13.23;7.40;;;;;;;7.62;100.00;102999.31;5231467;28;20494;-66
2022/03/27 01:19:19;;;;;;;12.27;7.95;;;;;;;7.60;100.00;103003.81;5231138;28;20029;-66
2022/03/27 01:21:50;;;;;;;9.70;6.90;;;;;;;7.57;100.00;102993.25;5231366;28;20028;-66
2022/03/27 01:24:21;;;;;;;10.68;7.13;;;;;;;7.55;100.00;103000.41;5232060;28;20029;-66
2022/03/27 01:26:53;;;;;;;12.73;7.53;;;;;;;7.56;100.00;102996.84;5234410;28;20024;-66
2022/03/27 01:29:24;;;;;;;13.32;7.50;;;;;;;7.51;100.00;102998.75;5230814;28;20070;-66
2022/03/27 01:31:57;;;;;;;12.23;8.05;;;;;;;7.50;100.00;102996.13;5230212;28;20033;-66
2022/03/27 01:34:28;;;;;;;12.50;7.43;;;;;;;7.45;100.00;103001.59;5235193;28;20085;-66
2022/03/27 01:37:09;;;;;;;11.32;7.07;;;;;;;7.43;100.00;103000.78;5237287;28;20025;-66
2022/03/27 01:39:41;;;;;;;12.43;7.05;;;;;;;7.37;100.00;102995.66;5239839;28;20470;-66
2022/03/27 01:42:12;;;;;;;12.00;7.40;;;;;;;7.33;100.00;102997.50;5244643;28;20096;-66
2022/03/27 01:44:44;;;;;;;13.35;8.40;;;;;;;7.35;100.00;102997.47;5232168;28;20135;-67
2022/03/27 01:47:15;;;;;;;11.32;8.10;;;;;;;7.32;100.00;103002.88;5232186;28;20087;-66
2022/03/27 01:49:46;;;;;;;12.07;7.78;;;;;;;7.25;100.00;103002.19;5232446;28;20032;-66
2022/03/27 01:52:17;;;;;;;14.02;9.18;;;;;;;7.24;100.00;102998.63;5232217;28;20035;-66
2022/03/27 01:54:49;;;;;;;15.48;8.23;;;;;;;7.24;100.00;102998.63;5240690;28;20036;-66
2022/03/27 01:57:20;;;;;;;12.38;8.45;;;;;;;7.21;100.00;102995.19;5238478;28;20109;-66
2022/03/27 01:59:52;;;;;;;14.50;8.75;;;;;;;7.23;100.00;102996.03;5239298;28;20040;-66
2022/03/27 02:02:26;;;;;;;14.68;8.90;;;;;;;7.15;100.00;102998.00;5234377;28;20137;-66
2022/03/27 02:04:57;;;;;;;;;;;;;;;7.16;100.00;102999.78;5230285;28;20033;-66
2022/03/27 02:07:37;;;;;;;15.73;9.63;;;;;;;7.14;100.00;102996.28;5229927;28;19946;-66
2022/03/27 02:10:09;;;;;;;16.52;9.80;;;;;;;7.14;100.00;102994.50;5227801;28;21457;-66
2022/03/27 02:12:41;;;;;;;18.67;9.25;;;;;;;7.05;100.00;103000.91;5233246;28;20532;-67
2022/03/27 02:15:13;;;;;;;14.43;9.63;;;;;;;7.09;100.00;102990.22;5226782;28;20157;-66
2022/03/27 02:17:44;;;;;;;15.98;9.63;;;;;;;6.99;100.00;102994.91;5235924;28;20034;-66
2022/03/27 02:20:15;;;;;;;13.55;9.77;;;;;;;6.99;100.00;102998.44;5233225;28;20048;-66
2022/03/27 02:22:46;;;;;;;14.85;9.45;;;;;;;6.95;100.00;102999.44;5232335;28;20456;-66
2022/03/27 02:25:18;;;;;;;16.83;10.00;;;;;;;6.95;100.00;102994.13;5232857;28;20029;-66
2022/03/27 02:27:50;;;;;;;15.43;10.35;;;;;;;6.90;100.00;102995.16;5234447;28;20073;-66
2022/03/27 02:30:21;;;;;;;16.65;10.48;;;;;;;6.90;100.00;102992.50;5228051;28;20032;-66
2022/03/27 02:32:52;;;;;;;17.08;10.18;;;;;;;6.95;100.00;102995.91;5232777;28;20033;-66
2022/03/27 02:35:24;;;;;;;15.23;10.32;;;;;;;6.96;100.00;102994.97;5227307;28;20029;-66
2022/03/27 02:37:55;;;;;;;17.27;11.38;;;;;;;6.95;100.00;102991.47;5238848;28;20065;-66
2022/03/27 02:40:26;;;;;;;20.83;13.07;;;;;;;6.96;100.00;102995.88;5229461;28;20471;-66
2022/03/27 02:43:01;;;;;;;17.05;12.65;;;;;;;6.98;100.00;102987.84;5232747;28;20456;-66
2022/03/27 02:45:33;;;;;;;20.67;13.45;;;;;;;7.03;100.00;102988.59;5231590;28;20040;-66
2022/03/27 02:48:05;;;;;;;23.38;15.15;;;;;;;6.99;100.00;102993.13;5245982;28;20037;-66
2022/03/27 02:50:43;;;;;;;25.05;16.25;;;;;;;7.01;100.00;102987.78;5232662;28;20566;-66
2022/03/27 02:53:14;;;;;;;27.85;16.73;;;;;;;6.99;100.00;102982.50;5237939;28;20025;-66
2022/03/27 02:55:45;;;;;;;27.80;17.25;;;;;;;7.00;100.00;102996.63;5241415;28;20110;-66
2022/03/27 02:58:17;;;;;;;29.40;17.30;;;;;;;7.02;100.00;102985.09;5245470;28;20047;-66
2022/03/27 03:00:48;;;;;;;31.75;18.35;;;;;;;7.02;100.00;102976.25;5239579;28;20032;-66
2022/03/27 03:03:20;;;;;;;28.38;18.50;;;;;;;7.03;100.00;102976.19;5234396;28;20025;-66
2022/03/27 03:05:51;;;;;;;26.38;18.70;;;;;;;7.10;100.00;102986.66;5234325;28;20025;-66
2022/03/27 03:08:26;;;;;;;31.02;19.98;;;;;;;7.11;100.00;102989.25;5234759;28;20708;-66
2022/03/27 03:10:58;;;;;;;27.25;19.42;;;;;;;7.12;100.00;102987.50;5234282;28;20029;-66
2022/03/27 03:13:29;;;;;;;32.88;19.58;;;;;;;7.19;100.00;102981.09;5234126;28;20429;-66
2022/03/27 03:16:01;;;;;;;29.92;19.85;;;;;;;7.15;100.00;102979.44;5231930;28;20041;-66
2022/03/27 03:18:34;;;;;;;28.67;18.60;;;;;;;7.16;100.00;102984.69;5234854;28;20035;-66
2022/03/27 03:21:05;;;;;;;30.95;20.13;;;;;;;7.11;100.00;102978.63;5234799;28;21388;-66
2022/03/27 03:23:37;;;;;;;31.85;20.13;;;;;;;7.13;100.00;102981.25;5234132;28;20049;-66
2022/03/27 03:26:09;;;;;;;31.92;20.20;;;;;;;7.17;100.00;102980.25;5236330;28;20045;-66
2022/03/27 03:28:40;;;;;;;28.38;18.95;;;;;;;7.25;100.00;102980.94;5236931;28;20029;-66
2022/03/27 03:31:11;;;;;;;30.27;19.65;;;;;;;7.21;100.00;102971.28;5231721;28;20064;-66
2022/03/27 03:33:43;;;;;;;26.90;18.80;;;;;;;7.22;100.00;102968.59;5231267;28;20518;-66
2022/03/27 03:36:15;;;;;;;28.73;19.33;;;;;;;7.29;100.00;102973.72;5240142;28;20025;-66
2022/03/27 03:38:46;;;;;;;28.08;18.75;;;;;;;7.23;100.00;102972.16;5239387;28;20388;-66
2022/03/27 03:41:18;;;;;;;30.02;20.00;;;;;;;7.21;100.00;102976.59;5235765;28;20036;-66
2022/03/27 03:43:49;;;;;;;27.15;18.55;;;;;;;7.28;100.00;102969.34;5235349;28;20127;-67
2022/03/27 03:46:20;;;;;;;27.75;17.88;;;;;;;7.33;100.00;102965.66;5238262;28;20059;-66
2022/03/27 03:48:52;;;;;;;25.50;18.05;;;;;;;7.31;100.00;102969.28;5242027;28;20060;-66
2022/03/27 03:51:23;;;;;;;26.88;17.77;;;;;;;7.35;100.00;102969.13;5232473;28;20087;-66
2022/03/27 03:53:54;;;;;;;23.60;17.38;;;;;;;7.38;100.00;102969.06;5236377;28;20047;-66
2022/03/27 03:56:25;;;;;;;26.88;18.88;;;;;;;7.37;100.00;102974.41;5235245;28;20056;-66
2022/03/27 03:58:57;;;;;;;27.10;18.75;;;;;;;7.35;100.00;102965.63;5241135;28;20053;-66
2022/03/27 04:01:28;;;;;;;26.20;18.77;;;;;;;7.41;100.00;102970.72;5232261;28;20021;-66
2022/03/27 04:03:59;;;;;;;25.10;18.35;;;;;;;7.41;100.00;102976.06;5237797;28;20399;-66
2022/03/27 04:06:30;;;;;;;27.25;17.38;;;;;;;7.42;100.00;102983.09;5238528;28;20059;-66
2022/03/27 04:09:02;;;;;;;24.48;17.13;;;;;;;7.42;100.00;102973.34;5236637;28;20456;-66
2022/03/27 04:11:33;;;;;;;24.67;17.65;;;;;;;7.51;100.00;102979.31;5236457;28;20029;-66
2022/03/27 04:14:04;;;;;;;23.25;16.63;;;;;;;7.53;100.00;102981.00;5238202;28;20036;-66
2022/03/27 04:16:36;;;;;;;22.00;15.68;;;;;;;7.56;100.00;102975.59;5244144;28;20155;-66
2022/03/27 04:19:08;;;;;;;21.02;16.05;;;;;;;7.50;100.00;102985.53;5245070;28;20045;-66
2022/03/27 04:21:39;;;;;;;22.77;15.93;;;;;;;7.55;100.00;102973.84;5248627;28;20040;-66
2022/03/27 04:24:11;;;;;;;23.13;16.35;;;;;;;7.64;100.00;102973.56;5249479;28;20519;-66
2022/03/27 04:26:42;;;;;;;23.85;16.95;;;;;;;7.58;100.00;102973.75;5250884;28;20029;-66
2022/03/27 04:29:13;;;;;;;21.83;16.30;;;;;;;7.61;100.00;102968.38;5249041;28;20395;-66
2022/03/27 04:31:45;;;;;;;23.42;16.55;;;;;;;7.62;100.00;102964.78;5236643;28;20535;-66
2022/03/27 04:34:16;;;;;;;22.55;17.67;;;;;;;7.61;100.00;102964.81;5245845;28;20029;-66
2022/03/27 04:36:47;;;;;;;25.85;18.80;;;;;;;7.54;100.00;102977.44;5242959;28;20044;-66
2022/03/27 04:39:20;;;;;;;25.55;18.27;;;;;;;7.54;100.00;102972.13;5243172;28;20159;-66
2022/03/27 04:41:51;;;;;;;27.23;18.40;;;;;;;7.60;100.00;102976.38;5242385;28;20490;-66
2022/03/27 04:44:22;;;;;;;28.00;18.38;;;;;;;7.50;100.00;102970.47;5235780;28;20154;-67
2022/03/27 04:46:54;;;;;;;26.20;18.60;;;;;;;7.46;100.00;102977.66;5232079;28;20041;-66
2022/03/27 04:49:25;;;;;;;28.27;18.92;;;;;;;7.45;100.00;102977.69;5234864;28;20743;-66
2022/03/27 04:51:57;;;;;;;26.30;18.23;;;;;;;7.51;100.00;102981.97;5231257;28;20043;-66
2022/03/27 04:54:30;;;;;;;24.40;17.90;;;;;;;7.47;100.00;102976.72;5230419;28;20106;-66
2022/03/27 04:57:01;;;;;;;26.55;18.75;;;;;;;7.48;100.00;102967.00;5235738;28;20048;-66
2022/03/27 04:59:32;;;;;;;25.73;18.92;;;;;;;7.41;100.00;102976.06;5234109;28;20033;-66
2022/03/27 05:02:05;;;;;;;27.88;19.27;;;;;;;7.44;100.00;102979.50;5233774;28;20035;-66
2022/03/27 05:04:37;;;;;;;29.25;20.17;;;;;;;7.42;100.00;102983.09;5234543;28;20037;-66
2022/03/27 05:07:09;;;;;;;27.08;19.20;;;;;;;7.46;100.00;102990.06;5233737;28;20124;-66
2022/03/27 05:09:40;;;;;;;27.17;19.75;;;;;;;7.43;100.00;102995.47;5233906;28;20091;-67
2022/03/27 05:12:11;;;;;;;30.35;20.48;;;;;;;7.38;100.00;102992.94;5238011;28;20034;-67
2022/03/27 05:14:42;;;;;;;32.35;19.65;;;;;;;7.39;100.00;102992.03;5236434;28;20041;-66
2022/03/27 05:17:14;;;;;;;29.80;19.65;;;;;;;7.32;100.00;102989.59;5234042;28;20487;-66
2022/03/27 05:19:45;;;;;;;36.42;21.23;;;;;;;7.28;100.00;102995.91;5233061;28;20496;-66
2022/03/27 05:22:16;;;;;;;31.25;20.58;;;;;;;7.31;100.00;102995.81;5238412;28;20028;-66
2022/03/27 05:24:48;;;;;;;32.20;21.15;;;;;;;7.29;100.00;102994.97;5237750;28;20032;-67
2022/03/27 05:27:19;;;;;;;30.15;20.88;;;;;;;7.33;100.00;102996.66;5236115;28;20032;-66
2022/03/27 05:29:50;;;;;;;31.83;21.00;;;;;;;7.33;100.00;102994.00;5233748;28;20025;-67
2022/03/27 05:32:22;;;;;;;31.67;21.13;;;;;;;7.36;100.00;102999.19;5229047;28;20033;-66
2022/03/27 05:34:53;;;;;;;31.27;20.70;;;;;;;7.43;100.00;103004.28;5238283;28;20044;-66
2022/03/27 05:37:24;;;;;;;29.95;21.50;;;;;;;7.46;100.00;102998.03;5233210;28;20084;-66
2022/03/27 05:39:56;;;;;;;31.83;21.73;;;;;;;7.55;100.00;103003.06;5237904;28;20029;-66
2022/03/27 05:42:27;;;;;;;32.45;21.58;;;;;;;7.52;100.00;103003.16;5232367;28;20453;-67
2022/03/27 05:44:59;;;;;;;31.13;20.83;;;;;;;7.53;100.00;103010.22;5229019;28;20514;-67
2022/03/27 05:47:31;;;;;;;31.83;21.13;;;;;;;7.48;100.00;103006.84;5234809;28;20403;-66
2022/03/27 05:50:03;;;;;;;32.70;21.75;;;;;;;7.51;100.00;103005.88;5238175;28;20036;-66
2022/03/27 05:52:34;;;;;;;32.25;20.55;;;;;;;7.49;100.00;103000.59;5231502;28;20025;-67
2022/03/27 05:55:06;;;;;;;32.22;20.38;;;;;;;7.44;100.00;103010.47;5232759;28;20060;-67
2022/03/27 05:57:38;;;;;;;31.55;20.80;;;;;;;7.51;100.00;103013.84;5236244;28;20060;-66
2022/03/27 06:00:12;;;;;;;33.63;20.00;;;;;;;7.46;100.00;103011.31;5229953;28;20116;-66
2022/03/27 06:02:44;;;;;;;34.20;20.77;;;;;;;7.50;100.00;103012.06;5227295;28;20083;-66
2022/03/27 06:05:17;;;;;;;27.25;18.33;;;;;;;7.45;100.00;103021.06;5231686;28;20499;-66
2022/03/27 06:07:54;;;;;;;27.80;18.02;;;;;;;7.39;100.00;103015.06;5227179;28;20089;-66
2022/03/27 06:10:31;;;;;;;27.73;17.45;;;;;;;7.20;100.00;103030.63;5232947;28;20017;-67
2022/03/27 06:13:03;;;;;;;31.35;18.40;;;;;;;7.15;100.00;103028.09;5238988;28;20423;-66
2022/03/27 06:15:34;;;;;;;28.95;16.33;;;;;;;7.11;100.00;103033.53;5234867;28;20098;-67
2022/03/27 06:18:10;;;;;;;30.92;18.58;;;;;;;7.11;100.00;103034.38;5239685;28;20049;-67
2022/03/27 06:20:41;;;;;;;28.27;16.38;;;;;;;7.04;100.00;103025.72;5241567;28;20033;-67
2022/03/27 06:23:13;;;;;;;28.38;17.20;;;;;;;7.05;100.00;103032.75;5244282;28;20036;-66
2022/03/27 06:25:44;;;;;;;26.42;15.85;;;;;;;7.13;100.00;103024.59;5239230;28;20091;-66
2022/03/27 06:28:15;;;;;;;27.48;16.48;;;;;;;7.19;100.00;103026.22;5239494;28;20486;-67
2022/03/27 06:30:46;;;;;;;28.60;16.35;;;;;;;7.21;100.00;103027.94;5240666;28;20518;-67
2022/03/27 06:33:18;;;;;;;27.58;15.80;;;;;;;7.32;100.00;103024.09;5240494;28;20051;-66
2022/03/27 06:35:49;;;;;;;26.92;16.25;;;;;;;7.31;100.00;103033.00;5239201;28;20107;-67
2022/03/27 06:38:21;;;;;;;30.90;17.23;;;;;;;7.33;100.00;103041.78;5241111;28;20033;-66
2022/03/27 06:40:52;;;;;;;31.25;18.05;;;;;;;7.41;100.00;103035.34;5243480;28;20036;-66
2022/03/27 06:43:24;;;;;;;29.27;16.65;;;;;;;7.46;100.00;103037.88;5239193;28;20021;-67
2022/03/27 06:45:55;;;;;;;32.58;17.20;;;;;;;7.45;100.00;103039.66;5240354;28;20029;-67
2022/03/27 06:48:27;;;;;;;33.50;16.85;;;;;;;7.44;100.00;103035.25;5240542;28;20032;-66
2022/03/27 06:50:58;;;;;;;31.05;17.92;;;;;;;7.50;100.00;103036.88;5240954;28;20043;-66
2022/03/27 06:53:29;;;;;;;32.75;18.35;;;;;;;7.46;100.00;103029.91;5241899;28;20033;-67
2022/03/27 06:56:01;;;;;;;33.78;18.65;;;;;;;7.51;100.00;103041.25;5237564;28;20037;-67
2022/03/27 06:58:33;;;;;;;31.02;17.50;;;;;;;7.53;100.00;103047.41;5242622;28;20140;-66
2022/03/27 07:03:54;;;;;;;34.47;18.58;;;;;;;7.54;100.00;103040.31;5241551;28;20033;-67
2022/03/27 07:06:25;;;;;;;36.10;19.05;;;;;;;7.57;100.00;103046.41;5238753;28;20037;-66
2022/03/27 07:08:57;;;;;;;34.80;19.08;;;;;;;7.52;100.00;103042.16;5241589;28;20064;-67
2022/03/27 07:11:28;;;;;;;34.45;19.05;;;;;;;7.47;100.00;103037.81;5238943;28;20456;-66
2022/03/27 07:13:59;;;;;;;33.63;18.33;;;;;;;7.45;100.00;103042.31;5235871;28;21649;-66
2022/03/27 07:16:31;;;;;;;38.05;20.35;;;;;;;7.46;100.00;103041.41;5241221;28;20078;-66
2022/03/27 07:19:02;;;;;;;40.22;20.67;;;;;;;7.37;100.00;103038.13;5241163;28;20472;-66
2022/03/27 07:21:33;;;;;;;36.38;19.40;;;;;;;7.46;100.00;103040.53;5241914;28;20435;-67
2022/03/27 07:24:05;;;;;;;38.35;19.75;;;;;;;7.51;100.00;103043.06;5240135;28;20464;-67
2022/03/27 07:26:37;;;;;;;47.92;21.88;;;;;;;7.46;100.00;103037.88;5242296;28;20487;-67
2022/03/27 07:29:10;;;;;;;42.17;22.90;;;;;;;7.54;100.00;103041.19;5238514;28;20031;-67
2022/03/27 07:31:42;;;;;;;44.22;22.42;;;;;;;7.53;100.00;103041.22;5233123;28;20361;-67
2022/03/27 07:34:13;;;;;;;47.92;22.73;;;;;;;7.43;100.00;103043.28;5238258;28;20402;-67
2022/03/27 07:36:44;;;;;;;41.95;22.85;;;;;;;7.45;100.00;103038.78;5238088;28;20030;-67
2022/03/27 07:39:15;;;;;;;42.72;24.13;;;;;;;7.44;100.00;103043.22;5242150;28;20033;-67
2022/03/27 07:41:48;;;;;;;45.33;22.42;;;;;;;7.53;100.00;103044.75;5241200;28;20395;-67
2022/03/27 07:44:19;;;;;;;42.30;22.15;;;;;;;7.48;100.00;103041.38;5238474;28;20025;-67
2022/03/27 07:46:52;;;;;;;41.88;22.88;;;;;;;7.54;100.00;103040.31;5243776;28;20052;-66
2022/03/27 07:49:23;;;;;;;40.97;22.35;;;;;;;7.57;100.00;103043.75;5243521;28;20058;-67
2022/03/27 07:51:55;;;;;;;43.80;22.65;;;;;;;7.66;100.00;103040.81;5246417;28;20029;-66
2022/03/27 07:54:27;;;;;;;40.42;20.55;;;;;;;7.69;100.00;103041.66;5243052;28;20044;-67
2022/03/27 07:56:58;;;;;;;37.55;21.00;;;;;;;7.78;100.00;103049.34;5241936;28;20052;-67
2022/03/27 07:59:29;;;;;;;37.95;19.35;;;;;;;7.89;100.00;103041.06;5240156;28;20528;-67
2022/03/27 08:02:01;;;;;;;36.28;19.98;;;;;;;7.96;100.00;103040.84;5255351;28;20707;-67
2022/03/27 08:04:34;;;;;;;34.95;19.40;;;;;;;7.90;100.00;103045.47;5244709;28;20166;-67
2022/03/27 08:07:05;;;;;;;32.47;18.58;;;;;;;7.87;100.00;103046.44;5241750;28;20041;-67
2022/03/27 08:09:37;;;;;;;33.70;19.35;;;;;;;7.95;100.00;103032.91;5241447;28;20037;-67
2022/03/27 08:12:09;;;;;;;34.05;18.52;;;;;;;8.02;100.00;103034.47;5245114;28;20488;-67
2022/03/27 08:14:43;;;;;;;34.63;19.83;;;;;;;7.93;100.00;103038.28;5251051;28;20044;-67
2022/03/27 08:17:17;;;;;;;;;;;;;;;8.10;100.00;103035.09;5261127;28;20028;-67
2022/03/27 08:19:50;;;;;;;38.28;20.63;;;;;;;7.93;100.00;103034.75;5247247;28;19926;-67
2022/03/27 08:22:24;;;;;;;37.92;21.02;;;;;;;7.85;100.00;103035.84;5248707;28;20031;-67
2022/03/27 08:24:55;;;;;;;40.27;21.20;;;;;;;7.95;100.00;103033.78;5248728;28;20159;-67
2022/03/27 08:27:27;;;;;;;35.72;20.15;;;;;;;8.02;100.00;103038.00;5244510;28;20395;-67
2022/03/27 08:29:59;;;;;;;36.63;20.85;;;;;;;8.05;100.00;103045.00;5238288;28;20064;-67
2022/03/27 08:32:30;;;;;;;35.00;19.25;;;;;;;8.16;100.00;103040.22;5245201;28;20374;-67
2022/03/27 08:35:01;;;;;;;32.95;17.63;;;;;;;8.19;100.00;103047.25;5255174;28;20120;-67
2022/03/27 08:37:33;;;;;;;32.13;19.27;;;;;;;8.28;100.00;103052.25;5250842;28;20108;-66
2022/03/27 08:40:04;;;;;;;34.72;20.02;;;;;;;8.29;100.00;103051.34;5244120;28;20051;-67
2022/03/27 08:42:36;;;;;;;34.28;19.27;;;;;;;8.37;100.00;103046.66;5245933;28;20040;-67
2022/03/27 08:45:07;;;;;;;34.35;19.50;;;;;;;8.33;100.00;103044.16;5244771;28;20549;-67
2022/03/27 08:47:40;;;;;;;35.90;20.02;;;;;;;8.34;100.00;103045.88;5248323;28;20497;-67
2022/03/27 08:50:24;;;;;;;34.47;20.17;;;;;;;8.30;100.00;103046.91;5248978;28;20032;-67
2022/03/27 08:52:58;;;;;;;;;;;;;;;8.54;100.00;103047.94;5239427;28;20044;-66
2022/03/27 08:55:55;;;;;;;34.75;19.95;;;;;;;8.54;100.00;103042.63;5235308;28;19917;-67
2022/03/27 08:58:40;;;;;;;32.55;19.58;;;;;;;8.62;100.00;103043.25;5234819;28;20037;-66
2022/03/27 09:01:11;;;;;;;30.17;18.90;;;;;;;8.64;100.00;103041.41;5243682;28;20455;-66
2022/03/27 09:03:43;;;;;;;32.95;19.08;;;;;;;8.72;100.00;103046.47;5241163;28;20027;-67
2022/03/27 09:06:14;;;;;;;30.55;18.77;;;;;;;8.68;100.00;103059.00;5240475;28;20385;-67
2022/03/27 09:08:45;;;;;;;30.77;19.08;;;;;;;8.69;99.57;103055.44;5246255;28;20025;-66
2022/03/27 09:11:18;;;;;;;30.48;18.83;;;;;;;8.64;99.61;103060.88;5249831;28;20025;-66
2022/03/27 09:13:52;;;;;;;31.50;18.98;;;;;;;8.62;99.99;103056.53;5251670;28;20029;-66
2022/03/27 09:16:24;;;;;;;26.58;16.67;;;;;;;8.63;99.13;103066.28;5253604;28;20053;-67
2022/03/27 09:19:01;;;;;;;24.00;15.13;;;;;;;8.63;98.87;103072.47;5247051;28;20032;-67
2022/03/27 09:21:33;;;;;;;19.80;13.52;;;;;;;8.50;97.21;103072.91;5248116;28;20356;-67
2022/03/27 09:24:04;;;;;;;21.02;13.27;;;;;;;8.44;97.40;103066.00;5239094;28;20033;-67
2022/03/27 09:26:35;;;;;;;22.95;14.85;;;;;;;8.49;98.06;103068.50;5240783;28;20056;-67
2022/03/27 09:29:10;;;;;;;21.65;14.57;;;;;;;8.54;99.28;103074.56;5237719;28;20493;-67
2022/03/27 09:31:41;;;;;;;;;;;;;;;8.77;99.25;103073.81;5236432;28;20032;-67
2022/03/27 09:34:12;;;;;;;20.98;13.73;;;;;;;8.66;98.13;103067.97;5235854;28;20437;-67
2022/03/27 09:36:44;;;;;;;23.55;14.57;;;;;;;8.69;98.02;103071.41;5271148;28;20033;-67
2022/03/27 09:39:20;;;;;;;24.50;15.18;;;;;;;8.68;97.44;103066.13;5236978;28;20025;-66
2022/03/27 09:41:59;;;;;;;21.92;14.10;;;;;;;8.70;97.94;103062.47;5235363;28;20025;-67
2022/03/27 09:44:34;;;;;;;22.60;15.02;;;;;;;8.78;98.11;103062.22;5234552;28;20029;-67
2022/03/27 09:47:12;;;;;;;22.35;14.63;;;;;;;8.89;97.80;103061.88;5236494;28;20041;-67
2022/03/27 09:49:48;;;;;;;24.83;15.75;;;;;;;8.92;97.27;103061.78;5233991;28;20033;-67
2022/03/27 09:52:24;;;;;;;24.77;15.40;;;;;;;8.76;95.78;103054.31;5234650;28;20086;-67
2022/03/27 09:55:03;;;;;;;25.92;15.20;;;;;;;8.84;96.64;103056.72;5232954;28;20026;-64
2022/03/27 09:57:39;;;;;;;23.73;14.40;;;;;;;8.91;96.27;103041.41;5235059;28;20402;-67
2022/03/27 10:00:11;;;;;;;26.95;15.73;;;;;;;8.98;97.31;103046.47;5232608;28;20483;-67
2022/03/27 10:02:44;;;;;;;28.27;16.42;;;;;;;9.09;95.96;103038.09;5231968;28;20150;-67
2022/03/27 10:05:18;;;;;;;28.15;16.45;;;;;;;9.26;96.37;103042.81;5234007;28;20100;-67
2022/03/27 10:07:54;;;;;;;24.40;15.67;;;;;;;9.25;95.09;103038.44;5235218;28;20167;-67
2022/03/27 10:10:27;;;;;;;25.25;15.93;;;;;;;9.20;94.70;103030.63;5237475;28;20520;-67
2022/03/27 10:12:59;;;;;;;25.40;16.08;;;;;;;9.46;94.24;103027.94;5239393;28;20069;-67
2022/03/27 10:15:30;;;;;;;25.63;15.18;;;;;;;9.65;93.89;103020.13;5234271;28;20128;-67
2022/03/27 10:18:10;;;;;;;27.20;14.73;;;;;;;9.77;93.24;103016.97;5229928;28;20037;-67
2022/03/27 10:20:45;;;;;;;23.35;14.98;;;;;;;9.81;91.99;103029.25;5234633;28;20029;-67
2022/03/27 10:23:28;;;;;;;26.00;15.65;;;;;;;9.92;92.14;103019.06;5238365;28;20027;-67
2022/03/27 10:26:02;;;;;;;22.17;14.63;;;;;;;10.09;90.34;103018.41;5234491;28;20037;-67
2022/03/27 10:28:34;;;;;;;20.85;14.48;;;;;;;10.25;90.35;103021.31;5230520;28;20060;-67
2022/03/27 10:31:07;;;;;;;23.17;14.95;;;;;;;10.36;91.17;103016.44;5232407;28;20111;-67
2022/03/27 10:33:38;;;;;;;20.45;14.10;;;;;;;10.49;89.76;103021.25;5235139;28;20037;-67
2022/03/27 10:36:19;;;;;;;22.27;14.82;;;;;;;10.58;89.23;103012.88;5229418;28;20037;-67
2022/03/27 10:39:08;;;;;;;22.17;14.73;;;;;;;10.73;88.64;103017.56;5230586;28;20036;-67
2022/03/27 10:42:02;;;;;;;22.45;15.23;;;;;;;10.84;88.76;103009.13;5234091;28;20044;-67
2022/03/27 10:44:49;;;;;;;21.58;14.68;;;;;;;10.80;87.22;103007.53;5231595;28;20040;-67
2022/03/27 10:47:23;;;;;;;22.45;15.13;;;;;;;10.76;86.50;103001.44;5231126;28;20435;-67
2022/03/27 10:50:01;;;;;;;21.45;14.27;;;;;;;10.79;87.18;103003.09;5233392;28;20025;-67
2022/03/27 10:52:36;;;;;;;23.00;14.57;;;;;;;10.58;86.88;102997.75;5231986;28;20039;-68
2022/03/27 10:55:09;;;;;;;22.17;14.55;;;;;;;10.54;86.62;102998.78;5234765;28;20029;-67
2022/03/27 10:57:46;;;;;;;25.33;14.85;;;;;;;10.40;86.70;102996.69;5232397;28;20029;-67
2022/03/27 11:00:37;;;;;;;21.63;15.07;;;;;;;10.37;88.22;102993.28;5237033;28;20065;-67
2022/03/27 11:03:08;;;;;;;23.65;15.45;;;;;;;10.33;89.44;102986.34;5232741;28;20044;-67
2022/03/27 11:05:41;;;;;;;23.67;14.65;;;;;;;10.35;88.40;102990.69;5230046;28;20028;-67
2022/03/27 11:08:18;;;;;;;22.10;15.70;;;;;;;10.16;88.74;102987.88;5236147;28;20067;-67
2022/03/27 11:10:54;;;;;;;23.60;16.52;;;;;;;10.19;89.92;102985.06;5231920;28;20565;-67
2022/03/27 11:13:25;;;;;;;24.70;15.68;;;;;;;10.28;89.88;102975.84;5237123;28;20471;-67
2022/03/27 11:16:09;;;;;;;23.48;15.90;;;;;;;10.37;89.37;102978.16;5246550;28;20055;-67
2022/03/27 11:18:45;;;;;;;25.52;16.70;;;;;;;10.49;88.78;102974.13;5238151;28;20032;-67
2022/03/27 11:21:26;;;;;;;22.92;15.30;;;;;;;10.48;88.68;102974.19;5241802;28;20847;-67
2022/03/27 11:24:03;;;;;;;21.55;15.90;;;;;;;10.46;87.63;102976.03;5240191;28;20044;-67
2022/03/27 11:26:35;;;;;;;23.80;15.18;;;;;;;10.58;87.61;102960.38;5239505;28;20108;-67
2022/03/27 11:29:21;;;;;;;24.65;16.17;;;;;;;10.58;88.00;102971.06;5243753;28;20382;-67
2022/03/27 11:32:09;;;;;;;23.70;15.75;;;;;;;10.64;87.46;102958.38;5246626;28;20037;-67
2022/03/27 11:34:41;;;;;;;21.65;14.27;;;;;;;10.67;86.75;102951.09;5250205;28;20029;-67
2022/03/27 11:37:22;;;;;;;20.55;13.98;;;;;;;10.85;84.89;102952.09;5240248;28;20096;-67
2022/03/27 11:39:54;;;;;;;24.80;16.77;;;;;;;10.95;86.56;102949.91;5243156;28;20029;-67
2022/03/27 11:42:29;;;;;;;22.02;16.05;;;;;;;10.96;85.67;102951.63;5248532;28;20033;-67
2022/03/27 11:45:11;;;;;;;21.27;14.80;;;;;;;11.16;85.92;102948.06;5248604;28;20071;-67